Terminal Aerodrome Forecast
Issued by NWS Twin Cities, MN

Home | Current Version | Previous Version | Text Only | Print | Product List | Glossary On
Versions: 1 2 3 4 5 6 7 8 9 10 11 12 13 14 15 16
000
FTUS43 KMPX 251736
TAFEAU
TAF
KEAU 251736Z 2518/2618 07011G17KT P6SM OVC015
      TEMPO 2521/2524 OVC020
     FM260100 06008KT 6SM -RA BR OVC011
     FM260600 05004KT 4SM -DZ BR SCT003 OVC006=

USA.gov is the U.S. government's official web portal to all federal, state and local government web resources and services.